Time;durP1;ratioP1;P1;durP2;ratioP2;P2;SDS_P1;SDS_P2;PMS_P1;PMS_P2;Temp;Humidity;BMP_temperature;BMP_pressure;BME280_temperature;BME280_humidity;BME280_pressure;Samples;Min_cycle;Max_cycle;Signal;HPM_P1;HPM_P2
2022/03/24 00:02:10;;;;;;;0.70;0.70;;;2.80;99.90;;;;;;5135171;27;20219;-74
2022/03/24 00:04:36;;;;;;;0.83;0.83;;;2.80;99.90;;;;;;5135147;27;20182;-75
2022/03/24 00:07:02;;;;;;;0.80;0.80;;;2.80;99.90;;;;;;5135210;27;20251;-75
2022/03/24 00:09:27;;;;;;;0.80;0.80;;;2.80;1.00;;;;;;5134287;27;20169;-76
2022/03/24 00:11:55;;;;;;;0.80;0.80;;;2.80;99.90;;;;;;5134799;27;20255;-76
2022/03/24 00:14:20;;;;;;;0.80;0.80;;;2.80;1.00;;;;;;5134909;27;20225;-76
2022/03/24 00:16:46;;;;;;;0.90;0.90;;;3.00;1.00;;;;;;5135507;27;20596;-76
2022/03/24 00:19:11;;;;;;;0.90;0.90;;;2.80;1.00;;;;;;5134502;27;20218;-75
2022/03/24 00:21:37;;;;;;;0.80;0.80;;;2.70;1.00;;;;;;5134597;27;20275;-75
2022/03/24 00:24:03;;;;;;;0.80;0.80;;;2.70;99.90;;;;;;5134486;27;20184;-75
2022/03/24 00:26:29;;;;;;;0.80;0.80;;;2.60;99.90;;;;;;5134764;27;20176;-75
2022/03/24 00:28:54;;;;;;;0.80;0.80;;;2.30;1.00;;;;;;5134068;27;20205;-75
2022/03/24 00:31:20;;;;;;;0.80;0.80;;;2.30;1.00;;;;;;5134705;27;20687;-75
2022/03/24 00:33:45;;;;;;;0.80;0.80;;;2.40;1.00;;;;;;5134906;27;20172;-73
2022/03/24 00:36:12;;;;;;;0.80;0.80;;;2.30;1.00;;;;;;5134680;27;20196;-73
2022/03/24 00:38:38;;;;;;;0.80;0.80;;;2.20;1.00;;;;;;5134177;27;20697;-73
2022/03/24 00:41:03;;;;;;;0.90;0.90;;;2.30;99.90;;;;;;5133452;27;20200;-73
2022/03/24 00:43:30;;;;;;;0.80;0.80;;;2.20;1.00;;;;;;5133662;27;20215;-73
2022/03/24 00:45:55;;;;;;;0.80;0.80;;;2.10;1.00;;;;;;5134097;27;20172;-76
2022/03/24 00:48:22;;;;;;;0.80;0.80;;;2.10;1.00;;;;;;5134035;27;20165;-73
2022/03/24 00:50:47;;;;;;;0.80;0.80;;;2.10;1.00;;;;;;5133083;27;20188;-74
2022/03/24 00:53:13;;;;;;;0.83;0.83;;;2.00;1.00;;;;;;5133520;27;20174;-73
2022/03/24 00:55:39;;;;;;;0.80;0.80;;;2.00;1.00;;;;;;5133900;27;20172;-73
2022/03/24 00:58:05;;;;;;;0.80;0.80;;;2.00;99.90;;;;;;5133552;27;20168;-74
2022/03/24 01:00:32;;;;;;;0.80;0.80;;;1.90;1.00;;;;;;5133165;27;20188;-75
2022/03/24 01:02:58;;;;;;;0.87;0.87;;;1.80;65.50;;;;;;5133412;27;20208;-74
2022/03/24 01:05:27;;;;;;;0.90;0.90;;;1.70;44.00;;;;;;5132632;27;20214;-73
2022/03/24 01:07:53;;;;;;;1.00;1.00;;;1.60;1.00;;;;;;5133469;27;20203;-74
2022/03/24 01:10:19;;;;;;;0.87;0.87;;;1.70;1.00;;;;;;5132832;27;20563;-74
2022/03/24 01:12:47;;;;;;;0.80;0.80;;;1.80;1.00;;;;;;5133367;27;20264;-74
2022/03/24 01:15:16;;;;;;;0.80;0.80;;;1.80;1.00;;;;;;5133539;27;20194;-74
2022/03/24 01:17:42;;;;;;;0.83;0.83;;;1.80;1.00;;;;;;5133626;27;20256;-73
2022/03/24 01:20:09;;;;;;;0.80;0.80;;;1.70;99.90;;;;;;5132820;27;20192;-73
2022/03/24 01:22:34;;;;;;;0.73;0.73;;;1.60;1.00;;;;;;5132989;27;20216;-74
2022/03/24 01:25:00;;;;;;;0.80;0.80;;;1.60;1.00;;;;;;5133083;27;20269;-74
2022/03/24 01:27:29;;;;;;;0.80;0.80;;;1.60;99.90;;;;;;5133217;27;20586;-74
2022/03/24 01:29:56;;;;;;;0.90;0.90;;;1.50;1.00;;;;;;5132703;27;20200;-73
2022/03/24 01:32:22;;;;;;;0.87;0.87;;;1.50;99.90;;;;;;5133000;27;20173;-74
2022/03/24 01:34:48;;;;;;;0.80;0.80;;;1.50;99.90;;;;;;5133381;27;20314;-74
2022/03/24 01:37:14;;;;;;;0.90;0.90;;;1.40;1.00;;;;;;5132890;27;20649;-73
2022/03/24 01:39:39;;;;;;;0.80;0.80;;;1.50;39.50;;;;;;5132336;27;20660;-75
2022/03/24 01:42:06;;;;;;;0.90;0.90;;;1.50;1.00;;;;;;5132397;27;20204;-73
2022/03/24 01:44:32;;;;;;;0.70;0.70;;;1.40;1.00;;;;;;5132913;27;20183;-75
2022/03/24 01:47:00;;;;;;;0.80;0.80;;;1.50;99.90;;;;;;5132911;27;20176;-75
2022/03/24 01:49:27;;;;;;;0.80;0.80;;;1.30;99.90;;;;;;5131970;27;20263;-73
2022/03/24 01:51:53;;;;;;;0.90;0.90;;;1.30;1.00;;;;;;5132537;27;20168;-73
2022/03/24 01:54:21;;;;;;;0.80;0.80;;;1.20;99.90;;;;;;5132736;27;20188;-73
2022/03/24 01:56:47;;;;;;;0.90;0.90;;;1.30;92.80;;;;;;5132915;27;20172;-73
2022/03/24 01:59:14;;;;;;;0.80;0.80;;;1.20;99.90;;;;;;5132082;27;20180;-73
2022/03/24 02:01:40;;;;;;;0.90;0.90;;;1.10;1.00;;;;;;5132228;27;20196;-73
2022/03/24 02:04:08;;;;;;;0.80;0.80;;;1.20;1.00;;;;;;5132415;27;20241;-75
2022/03/24 02:06:34;;;;;;;0.80;0.80;;;1.20;99.90;;;;;;5132177;27;20216;-73
2022/03/24 02:09:00;;;;;;;0.87;0.87;;;1.20;1.00;;;;;;5131734;27;20690;-75
2022/03/24 02:11:27;;;;;;;0.80;0.80;;;1.10;64.10;;;;;;5132372;27;20199;-75
2022/03/24 02:13:54;;;;;;;0.80;0.80;;;1.10;26.00;;;;;;5132586;27;20205;-73
2022/03/24 02:16:20;;;;;;;0.80;0.80;;;1.10;1.00;;;;;;5132100;27;20212;-76
2022/03/24 02:18:46;;;;;;;0.80;0.80;;;1.10;99.90;;;;;;5132198;27;20271;-74
2022/03/24 02:21:15;;;;;;;0.80;0.80;;;1.00;99.90;;;;;;5131561;27;20295;-76
2022/03/24 02:23:44;;;;;;;0.80;0.80;;;1.00;99.90;;;;;;5132247;27;20216;-74
2022/03/24 02:26:12;;;;;;;0.80;0.80;;;1.00;99.90;;;;;;5132188;27;20169;-74
2022/03/24 02:28:38;;;;;;;0.90;0.90;;;0.80;1.00;;;;;;5132006;27;20180;-74
2022/03/24 02:31:04;;;;;;;0.80;0.80;;;0.90;70.40;;;;;;5131550;27;20661;-74
2022/03/24 02:33:31;;;;;;;0.90;0.90;;;0.80;1.00;;;;;;5131990;27;20179;-74
2022/03/24 02:35:56;;;;;;;0.90;0.90;;;0.80;99.90;;;;;;5131950;27;20180;-74
2022/03/24 02:38:22;;;;;;;0.80;0.80;;;0.90;99.90;;;;;;5131767;27;20244;-74
2022/03/24 02:40:51;;;;;;;0.80;0.80;;;0.80;1.00;;;;;;5131443;28;20193;-74
2022/03/24 02:43:19;;;;;;;0.80;0.80;;;0.90;1.00;;;;;;5131566;28;20208;-73
2022/03/24 02:45:46;;;;;;;0.80;0.80;;;0.70;99.90;;;;;;5131956;28;20177;-74
2022/03/24 02:48:14;;;;;;;0.83;0.83;;;0.80;1.00;;;;;;5131938;28;20651;-74
2022/03/24 02:50:40;;;;;;;0.80;0.80;;;0.60;1.00;;;;;;5131391;28;20256;-74
2022/03/24 02:53:06;;;;;;;0.80;0.80;;;0.50;1.00;;;;;;5132238;28;20255;-74
2022/03/24 02:55:31;;;;;;;0.80;0.80;;;0.60;1.00;;;;;;5131931;28;20169;-73
2022/03/24 02:57:57;;;;;;;0.73;0.73;;;0.50;1.00;;;;;;5131827;28;20183;-75
2022/03/24 03:00:25;;;;;;;0.80;0.80;;;0.50;1.00;;;;;;5130930;28;20192;-74
2022/03/24 03:02:52;;;;;;;0.80;0.80;;;0.50;22.50;;;;;;5130107;28;20211;-73
2022/03/24 03:05:18;;;;;;;0.87;0.87;;;0.40;1.00;;;;;;5131596;28;20344;-74
2022/03/24 03:07:44;;;;;;;0.80;0.80;;;0.50;1.00;;;;;;5131715;28;20180;-74
2022/03/24 03:10:10;;;;;;;0.90;0.90;;;0.50;1.00;;;;;;5131424;28;20230;-73
2022/03/24 03:12:36;;;;;;;0.80;0.80;;;0.50;1.00;;;;;;5131499;28;20181;-73
2022/03/24 03:15:06;;;;;;;0.80;0.80;;;0.50;99.90;;;;;;5131425;28;20180;-73
2022/03/24 03:17:34;;;;;;;0.90;0.90;;;0.40;1.00;;;;;;5131373;28;20256;-73
2022/03/24 03:20:00;;;;;;;0.90;0.90;;;0.20;1.00;;;;;;5130935;27;20192;-73
2022/03/24 03:22:26;;;;;;;0.80;0.80;;;0.20;1.00;;;;;;5132095;28;20729;-73
2022/03/24 03:24:52;;;;;;;0.90;0.90;;;0.30;1.00;;;;;;5131874;28;20177;-73
2022/03/24 03:27:18;;;;;;;0.90;0.90;;;0.30;1.00;;;;;;5131789;28;20177;-74
2022/03/24 03:29:44;;;;;;;0.80;0.80;;;0.30;99.90;;;;;;5134139;27;20188;-73
2022/03/24 03:32:10;;;;;;;0.80;0.80;;;0.40;99.90;;;;;;5135740;27;20204;-73
2022/03/24 03:34:38;;;;;;;0.90;0.90;;;0.40;1.00;;;;;;5135961;27;20172;-73
2022/03/24 03:37:04;;;;;;;0.90;0.90;;;0.30;99.90;;;;;;5135896;27;20571;-73
2022/03/24 03:39:29;;;;;;;0.80;0.80;;;0.10;1.00;;;;;;5135551;27;20260;-75
2022/03/24 03:41:55;;;;;;;0.90;0.90;;;-0.10;39.30;;;;;;5135973;27;20243;-74
2022/03/24 03:44:21;;;;;;;0.90;0.90;;;-0.10;99.90;;;;;;5136103;27;20599;-76
2022/03/24 03:46:47;;;;;;;0.80;0.80;;;0.10;1.00;;;;;;5135807;27;20230;-75
2022/03/24 03:49:13;;;;;;;0.90;0.90;;;0.20;99.90;;;;;;5135837;27;20512;-73
2022/03/24 03:51:39;;;;;;;0.90;0.90;;;0.00;99.90;;;;;;5135918;27;20284;-75
2022/03/24 03:54:07;;;;;;;0.90;0.90;;;0.00;1.00;;;;;;5135770;27;20587;-75
2022/03/24 03:56:34;;;;;;;0.90;0.90;;;-0.10;1.00;;;;;;5135841;27;20566;-73
2022/03/24 03:59:00;;;;;;;0.97;0.97;;;-0.10;99.90;;;;;;5134328;27;20251;-76
2022/03/24 04:01:26;;;;;;;0.80;0.80;;;0.10;1.00;;;;;;5134557;27;20196;-77
2022/03/24 04:03:52;;;;;;;0.90;0.90;;;0.00;1.00;;;;;;5134938;27;20223;-76
2022/03/24 04:06:17;;;;;;;0.80;0.80;;;0.00;1.00;;;;;;5134907;27;20252;-76
2022/03/24 04:08:44;;;;;;;0.90;0.90;;;0.00;1.00;;;;;;5134391;27;20172;-74
2022/03/24 04:11:11;;;;;;;0.90;0.90;;;-0.10;99.90;;;;;;5133869;27;20192;-76
2022/03/24 04:13:39;;;;;;;0.80;0.80;;;0.00;1.00;;;;;;5134691;27;20536;-77
2022/03/24 04:16:06;;;;;;;0.90;0.90;;;-0.10;48.20;;;;;;5134484;27;20164;-77
2022/03/24 04:18:32;;;;;;;0.80;0.80;;;-0.30;1.00;;;;;;5134492;27;20173;-74
2022/03/24 04:20:58;;;;;;;0.90;0.90;;;-0.40;1.00;;;;;;5133921;27;20188;-75
2022/03/24 04:23:24;;;;;;;0.83;0.83;;;-0.40;99.90;;;;;;5134516;27;20684;-76
2022/03/24 04:25:49;;;;;;;0.83;0.83;;;-0.30;99.90;;;;;;5134605;27;20199;-77
2022/03/24 04:28:15;;;;;;;0.93;0.93;;;-0.30;55.80;;;;;;5134360;27;20184;-75
2022/03/24 04:30:43;;;;;;;1.00;1.00;;;-0.30;1.00;;;;;;5133534;27;20200;-75
2022/03/24 04:33:08;;;;;;;0.90;0.90;;;-0.40;1.00;;;;;;5134001;27;20263;-75
2022/03/24 04:35:34;;;;;;;0.80;0.80;;;-0.30;1.00;;;;;;5134280;27;20686;-76
2022/03/24 04:38:02;;;;;;;0.83;0.83;;;-0.40;99.80;;;;;;5133838;27;20578;-76
2022/03/24 04:40:28;;;;;;;0.90;0.90;;;-0.40;99.90;;;;;;5134079;27;20554;-74
2022/03/24 04:42:54;;;;;;;0.90;0.90;;;-0.40;99.90;;;;;;5133830;27;20668;-74
2022/03/24 04:45:21;;;;;;;0.90;0.90;;;-0.20;1.00;;;;;;5133844;27;20625;-74
2022/03/24 04:47:47;;;;;;;0.90;0.90;;;-0.30;1.00;;;;;;5133544;27;20547;-75
2022/03/24 04:50:14;;;;;;;1.00;1.00;;;-0.10;1.00;;;;;;5130947;27;20228;-76
2022/03/24 04:52:41;;;;;;;0.87;0.87;;;-0.10;99.90;;;;;;5123269;27;20169;-74
2022/03/24 04:55:07;;;;;;;1.00;1.00;;;-0.10;1.00;;;;;;5120896;27;20538;-75
2022/03/24 04:57:33;;;;;;;0.80;0.80;;;-0.30;1.00;;;;;;5189913;22;20245;-78
2022/03/24 04:59:59;;;;;;;0.87;0.87;;;-0.40;1.00;;;;;;5053152;28;20222;-76
2022/03/24 05:02:25;;;;;;;0.80;0.80;;;-0.50;99.90;;;;;;5053437;28;20199;-76
2022/03/24 05:04:52;;;;;;;0.90;0.90;;;-0.50;99.90;;;;;;5053985;28;20213;-77
2022/03/24 05:07:18;;;;;;;0.90;0.90;;;-0.50;95.60;;;;;;5054146;28;20270;-76
2022/03/24 05:09:45;;;;;;;0.80;0.80;;;-0.50;94.60;;;;;;5053735;28;20268;-76
2022/03/24 05:12:11;;;;;;;0.90;0.90;;;-0.50;99.90;;;;;;5054018;28;20210;-75
2022/03/24 05:14:36;;;;;;;0.80;0.80;;;-0.50;99.90;;;;;;5054081;28;20176;-74
2022/03/24 05:17:02;;;;;;;0.90;0.90;;;-0.50;99.90;;;;;;5054172;28;20183;-75
2022/03/24 05:19:28;;;;;;;0.97;0.97;;;-0.50;99.90;;;;;;5053332;28;20171;-77
2022/03/24 05:21:54;;;;;;;0.83;0.83;;;-0.40;1.00;;;;;;5053537;28;20214;-80
2022/03/24 05:24:20;;;;;;;0.90;0.90;;;-0.30;99.90;;;;;;5053462;28;20269;-75
2022/03/24 05:26:46;;;;;;;0.90;0.90;;;-0.40;99.90;;;;;;5053233;28;20245;-74
2022/03/24 05:29:12;;;;;;;0.90;0.90;;;-0.30;99.90;;;;;;5052899;28;20174;-73
2022/03/24 05:31:37;;;;;;;0.87;0.87;;;-0.30;99.90;;;;;;5053399;28;20203;-76
2022/03/24 05:34:04;;;;;;;0.90;0.90;;;-0.20;99.90;;;;;;5053346;28;20178;-75
2022/03/24 05:36:30;;;;;;;0.80;0.80;;;-0.20;1.00;;;;;;5053273;28;20581;-74
2022/03/24 05:38:56;;;;;;;1.00;1.00;;;-0.10;99.90;;;;;;5052851;28;20178;-75
2022/03/24 05:41:21;;;;;;;0.80;0.80;;;0.00;15.70;;;;;;5053187;28;20195;-79
2022/03/24 05:44:06;;;;;;;0.60;0.60;;;0.20;1.00;;;;;;5052229;28;20470;-75
2022/03/24 05:46:41;;;;;;;0.80;0.80;;;0.40;99.90;;;;;;5053604;28;20579;-73
2022/03/24 05:49:08;;;;;;;1.00;1.00;;;0.50;25.60;;;;;;5052643;28;20702;-73
2022/03/24 05:51:34;;;;;;;0.80;0.80;;;0.50;1.00;;;;;;5052563;28;20195;-74
2022/03/24 05:54:00;;;;;;;0.90;0.90;;;0.50;99.90;;;;;;5053179;28;20182;-73
2022/03/24 05:56:26;;;;;;;0.70;0.70;;;0.50;99.90;;;;;;5053389;28;20182;-74
2022/03/24 05:58:52;;;;;;;0.90;0.90;;;0.50;1.00;;;;;;5052340;28;20619;-75
2022/03/24 06:01:20;;;;;;;0.80;0.80;;;0.50;1.00;;;;;;5052940;28;20230;-74
2022/03/24 06:03:47;;;;;;;0.90;0.90;;;0.60;1.00;;;;;;5053166;28;20695;-76
2022/03/24 06:06:13;;;;;;;0.83;0.83;;;0.70;1.00;;;;;;5052813;28;20178;-73
2022/03/24 06:08:42;;;;;;;0.87;0.87;;;0.80;1.00;;;;;;5053053;28;20191;-74
2022/03/24 06:11:15;;;;;;;0.90;0.90;;;1.00;1.00;;;;;;5052951;28;20191;-74
2022/03/24 06:13:41;;;;;;;0.80;0.80;;;1.20;1.00;;;;;;5052267;28;20179;-74
2022/03/24 06:16:07;;;;;;;0.90;0.90;;;1.40;1.00;;;;;;5052592;28;20186;-74
2022/03/24 06:18:35;;;;;;;0.90;0.90;;;1.70;1.00;;;;;;5052632;28;20185;-78
2022/03/24 06:21:01;;;;;;;0.80;0.80;;;1.90;1.00;;;;;;5052383;28;20226;-74
2022/03/24 06:23:27;;;;;;;0.80;0.80;;;2.00;1.00;;;;;;5052869;28;20712;-76
2022/03/24 06:25:52;;;;;;;0.80;0.80;;;2.10;1.00;;;;;;5052668;28;20193;-75
2022/03/24 06:28:18;;;;;;;0.80;0.80;;;2.30;1.00;;;;;;5052850;28;20168;-75
2022/03/24 06:30:44;;;;;;;0.80;0.80;;;2.50;1.00;;;;;;5051996;28;20226;-77
2022/03/24 06:33:10;;;;;;;0.90;0.90;;;2.90;99.90;;;;;;5052408;28;20183;-74
2022/03/24 06:35:36;;;;;;;0.87;0.87;;;2.70;1.00;;;;;;5051983;28;20183;-76
2022/03/24 06:38:01;;;;;;;0.87;0.87;;;2.60;1.00;;;;;;5052259;28;20450;-75
2022/03/24 06:40:27;;;;;;;0.80;0.80;;;2.80;1.00;;;;;;5051927;28;20203;-74
2022/03/24 06:42:53;;;;;;;0.80;0.80;;;2.80;1.00;;;;;;5052221;28;20222;-77
2022/03/24 06:45:19;;;;;;;0.80;0.80;;;2.70;1.00;;;;;;5052313;28;20198;-74
2022/03/24 06:47:45;;;;;;;0.80;0.80;;;2.90;1.00;;;;;;5052029;28;20179;-74
2022/03/24 06:50:15;;;;;;;0.80;0.80;;;3.10;1.00;;;;;;5051320;28;20215;-74
2022/03/24 06:52:42;;;;;;;0.87;0.87;;;3.50;99.90;;;;;;5051877;28;20183;-74
2022/03/24 06:55:09;;;;;;;0.80;0.80;;;3.70;99.90;;;;;;5051914;28;20172;-73
2022/03/24 06:57:36;;;;;;;0.80;0.80;;;3.70;1.00;;;;;;5051631;28;20198;-75
2022/03/24 07:00:02;;;;;;;0.80;0.80;;;3.90;99.90;;;;;;5051260;28;20869;-76
2022/03/24 07:02:28;;;;;;;0.83;0.83;;;3.80;1.00;;;;;;5051306;28;20211;-77
2022/03/24 07:04:54;;;;;;;0.80;0.80;;;4.50;51.00;;;;;;5054135;28;20233;-77
2022/03/24 07:07:20;;;;;;;0.70;0.70;;;5.20;99.90;;;;;;5055656;28;20183;-77
2022/03/24 07:09:45;;;;;;;0.70;0.70;;;6.60;26.30;;;;;;5055023;28;20628;-74
2022/03/24 07:12:11;;;;;;;0.60;0.60;;;7.00;1.00;;;;;;5055799;28;20254;-74
2022/03/24 07:14:37;;;;;;;0.60;0.60;;;7.60;1.00;;;;;;5056026;28;20179;-75
2022/03/24 07:17:04;;;;;;;0.67;0.67;;;7.30;1.00;;;;;;5055474;28;20270;-76
2022/03/24 07:19:29;;;;;;;0.60;0.60;;;8.10;1.00;;;;;;5055173;28;20210;-77
2022/03/24 07:21:55;;;;;;;0.60;0.60;;;7.60;1.00;;;;;;5055169;28;20203;-74
2022/03/24 07:24:20;;;;;;;0.50;0.50;;;7.50;1.00;;;;;;5055062;28;20179;-73
2022/03/24 07:26:46;;;;;;;0.50;0.50;;;8.70;1.00;;;;;;5054762;28;20266;-76
2022/03/24 07:29:12;;;;;;;0.50;0.50;;;9.80;1.00;;;;;;5054162;28;20209;-74
2022/03/24 07:31:38;;;;;;;0.60;0.60;;;10.80;1.00;;;;;;5054859;28;20703;-74
2022/03/24 07:34:04;;;;;;;0.57;0.57;;;11.40;1.00;;;;;;5054826;28;20227;-73
2022/03/24 07:36:29;;;;;;;0.47;0.47;;;11.00;1.00;;;;;;5054801;28;20179;-73
2022/03/24 07:38:57;;;;;;;0.40;0.40;;;11.00;1.00;;;;;;5053982;28;20171;-73
2022/03/24 07:41:23;;;;;;;0.40;0.40;;;10.70;1.00;;;;;;5054441;28;20277;-74
2022/03/24 07:43:49;;;;;;;0.50;0.50;;;10.70;1.00;;;;;;5054214;28;20310;-73
2022/03/24 07:46:15;;;;;;;0.40;0.40;;;10.90;1.00;;;;;;5054190;28;20608;-74
2022/03/24 07:48:43;;;;;;;0.50;0.50;;;10.90;1.00;;;;;;5054334;28;20270;-74
2022/03/24 07:51:08;;;;;;;0.40;0.40;;;11.30;1.00;;;;;;5053914;28;20187;-73
2022/03/24 07:53:49;;;;;;;0.60;0.60;;;11.10;1.00;;;;;;5054736;28;20213;-74
2022/03/24 07:56:17;;;;;;;0.40;0.40;;;11.50;1.00;;;;;;5054662;28;20178;-73
2022/03/24 07:58:43;;;;;;;0.40;0.40;;;12.20;1.00;;;;;;5054775;28;20233;-73
2022/03/24 08:01:10;;;;;;;0.40;0.40;;;12.10;1.00;;;;;;5053617;28;20680;-73
2022/03/24 08:03:35;;;;;;;0.30;0.30;;;12.70;1.00;;;;;;5054505;28;20593;-74
2022/03/24 08:06:02;;;;;;;0.37;0.37;;;12.20;1.00;;;;;;5056215;28;20659;-73
2022/03/24 08:08:28;;;;;;;0.40;0.40;;;12.60;1.00;;;;;;5054769;28;20183;-73
2022/03/24 08:10:54;;;;;;;0.30;0.30;;;13.10;1.00;;;;;;5053828;28;20192;-72
2022/03/24 08:13:21;;;;;;;0.30;0.30;;;12.60;1.00;;;;;;5054090;28;20182;-73
2022/03/24 08:15:48;;;;;;;0.37;0.37;;;12.90;1.00;;;;;;5054013;28;20175;-74
2022/03/24 08:18:14;;;;;;;0.33;0.33;;;13.40;1.00;;;;;;5058096;28;20352;-74
2022/03/24 08:20:42;;;;;;;0.40;0.40;;;13.50;1.00;;;;;;5053655;28;20191;-74
2022/03/24 08:23:09;;;;;;;0.30;0.30;;;14.10;1.00;;;;;;5053868;28;20340;-74
2022/03/24 08:25:35;;;;;;;0.30;0.30;;;14.40;1.00;;;;;;5054206;28;20171;-74
2022/03/24 08:28:01;;;;;;;0.30;0.30;;;14.50;1.00;;;;;;5053736;28;20651;-74
2022/03/24 08:30:26;;;;;;;0.30;0.30;;;14.30;1.00;;;;;;5053703;28;20203;-74
2022/03/24 08:32:52;;;;;;;0.30;0.30;;;14.30;1.00;;;;;;5054069;28;20662;-74
2022/03/24 08:35:18;;;;;;;0.30;0.30;;;14.40;1.00;;;;;;5054223;28;20175;-74
2022/03/24 08:37:44;;;;;;;0.27;0.27;;;14.80;1.00;;;;;;5053818;28;20489;-74
2022/03/24 08:40:10;;;;;;;0.30;0.30;;;15.10;1.00;;;;;;5055153;28;20199;-75
2022/03/24 08:42:37;;;;;;;0.30;0.30;;;15.30;1.00;;;;;;5054877;28;20555;-74
2022/03/24 08:45:08;;;;;;;0.30;0.30;;;15.40;1.00;;;;;;5056441;28;20179;-74
2022/03/24 08:47:34;;;;;;;0.20;0.20;;;15.70;1.00;;;;;;5054771;28;20662;-75
2022/03/24 08:50:00;;;;;;;0.20;0.20;;;16.00;1.00;;;;;;5053286;28;20670;-75
2022/03/24 08:52:27;;;;;;;0.30;0.30;;;15.50;1.00;;;;;;5053890;28;20213;-74
2022/03/24 08:54:54;;;;;;;0.23;0.23;;;15.60;1.00;;;;;;5053628;28;20183;-74
2022/03/24 08:57:25;;;;;;;0.30;0.30;;;15.90;1.00;;;;;;5053149;28;20586;-75
2022/03/24 08:59:52;;;;;;;0.30;0.30;;;16.40;1.00;;;;;;5053083;28;20559;-74
2022/03/24 09:02:17;;;;;;;0.30;0.30;;;16.80;1.00;;;;;;5053434;28;20230;-75
2022/03/24 09:04:43;;;;;;;0.40;0.40;;;16.80;1.00;;;;;;5053466;28;20535;-74
2022/03/24 09:07:08;;;;;;;0.30;0.30;;;17.00;1.00;;;;;;5053379;28;20189;-75
2022/03/24 09:09:34;;;;;;;0.40;0.40;;;16.90;1.00;;;;;;5052637;28;20541;-74
2022/03/24 09:12:00;;;;;;;0.30;0.30;;;17.20;1.00;;;;;;5053916;28;20185;-74
2022/03/24 09:14:25;;;;;;;0.27;0.27;;;16.90;1.00;;;;;;5065384;28;20186;-74
2022/03/24 09:16:51;;;;;;;0.37;0.37;;;17.60;1.00;;;;;;5065968;28;20171;-75
2022/03/24 09:19:16;;;;;;;0.33;0.33;;;17.70;1.00;;;;;;5064496;28;20175;-74
2022/03/24 09:21:42;;;;;;;0.40;0.40;;;18.10;1.00;;;;;;5065518;28;20222;-75
2022/03/24 09:24:08;;;;;;;0.30;0.30;;;18.40;1.00;;;;;;5060746;28;20311;-75
2022/03/24 09:26:36;;;;;;;0.40;0.40;;;17.30;1.00;;;;;;5051953;28;20660;-73
2022/03/24 09:29:02;;;;;;;0.40;0.40;;;17.70;1.00;;;;;;5052399;28;20175;-76
2022/03/24 09:31:27;;;;;;;0.40;0.40;;;17.80;1.00;;;;;;5052853;28;20214;-75
2022/03/24 09:33:53;;;;;;;0.30;0.30;;;17.20;1.00;;;;;;5053137;28;20182;-74
2022/03/24 09:36:18;;;;;;;0.30;0.30;;;17.10;1.00;;;;;;5052442;28;20175;-75
2022/03/24 09:38:44;;;;;;;0.30;0.30;;;17.00;1.00;;;;;;5052497;28;20167;-75
2022/03/24 09:41:13;;;;;;;0.37;0.37;;;17.60;1.00;;;;;;5051853;28;20203;-75
2022/03/24 09:43:41;;;;;;;0.20;0.20;;;18.70;1.00;;;;;;5052397;28;20617;-81
2022/03/24 09:46:07;;;;;;;0.30;0.30;;;19.00;1.00;;;;;;5033020;28;20180;-75
2022/03/24 09:48:33;;;;;;;0.40;0.40;;;19.10;1.00;;;;;;5033047;28;20179;-76
2022/03/24 09:50:58;;;;;;;0.30;0.30;;;19.40;1.00;;;;;;5031997;28;20218;-76
2022/03/24 09:53:24;;;;;;;0.40;0.40;;;19.50;1.00;;;;;;5034222;28;20298;-79
2022/03/24 09:55:50;;;;;;;0.37;0.37;;;19.70;1.00;;;;;;5036170;28;20226;-79
2022/03/24 09:58:16;;;;;;;0.30;0.30;;;20.10;1.00;;;;;;5035295;28;20195;-78
2022/03/24 10:00:42;;;;;;;0.40;0.40;;;19.10;1.00;;;;;;5035146;28;20218;-78
2022/03/24 10:03:21;;;;;;;0.40;0.40;;;19.40;1.00;;;;;;5035539;28;20512;-80
2022/03/24 10:06:12;;;;;;;0.37;0.37;;;19.70;1.00;;;;;;5037112;28;20176;-79
2022/03/24 10:08:38;;;;;;;0.30;0.30;;;19.60;1.00;;;;;;5032903;28;20188;-76
2022/03/24 10:11:06;;;;;;;0.40;0.40;;;19.80;1.00;;;;;;5037761;28;20184;-78
2022/03/24 10:13:47;;;;;;;0.33;0.33;;;19.30;1.00;;;;;;5035260;28;20176;-81
2022/03/24 10:16:34;;;;;;;0.33;0.33;;;19.40;1.00;;;;;;5036073;28;20175;-78
2022/03/24 10:19:02;;;;;;;0.30;0.30;;;19.30;1.00;;;;;;5035458;28;20175;-79
2022/03/24 10:21:29;;;;;;;0.30;0.30;;;19.70;1.00;;;;;;5036155;28;20306;-79
2022/03/24 10:24:00;;;;;;;0.30;0.30;;;20.80;1.00;;;;;;5035216;28;20223;-78
2022/03/24 10:26:47;;;;;;;0.30;0.30;;;20.30;1.00;;;;;;5039824;28;20180;-79
2022/03/24 10:29:16;;;;;;;0.30;0.30;;;20.80;1.00;;;;;;5038985;28;20183;-79
2022/03/24 10:31:43;;;;;;;0.30;0.30;;;21.00;1.00;;;;;;5039747;28;20222;-76
2022/03/24 10:34:11;;;;;;;0.40;0.40;;;21.20;1.00;;;;;;5039495;28;20180;-78
2022/03/24 10:36:39;;;;;;;0.40;0.40;;;20.40;1.00;;;;;;5038731;28;20217;-79
2022/03/24 10:39:05;;;;;;;0.40;0.40;;;19.70;1.00;;;;;;5040264;28;20199;-79
2022/03/24 10:41:33;;;;;;;0.30;0.30;;;19.70;1.00;;;;;;5038959;28;20552;-80
2022/03/24 10:44:09;;;;;;;0.40;0.40;;;19.00;1.00;;;;;;5035980;28;20650;-79
2022/03/24 10:46:37;;;;;;;0.40;0.40;;;20.50;1.00;;;;;;5034432;28;20184;-77
2022/03/24 10:49:18;;;;;;;0.40;0.40;;;20.80;1.00;;;;;;5034615;28;20203;-79
2022/03/24 10:51:46;;;;;;;0.30;0.30;;;21.00;1.00;;;;;;5033163;28;20175;-78
2022/03/24 10:54:22;;;;;;;0.30;0.30;;;22.10;1.00;;;;;;5034629;28;20233;-78
2022/03/24 10:56:56;;;;;;;0.40;0.40;;;23.00;1.00;;;;;;5036126;28;20181;-77
2022/03/24 10:59:26;;;;;;;0.40;0.40;;;22.80;1.00;;;;;;5036862;28;20229;-78
2022/03/24 11:01:53;;;;;;;0.30;0.30;;;23.10;1.00;;;;;;5035843;28;20582;-78
2022/03/24 11:04:19;;;;;;;0.50;0.50;;;22.50;1.00;;;;;;5036762;28;20190;-77
2022/03/24 11:06:52;;;;;;;0.40;0.40;;;23.10;1.00;;;;;;5051176;28;20259;-78
2022/03/24 11:09:23;;;;;;;0.50;0.50;;;23.40;1.00;;;;;;5033697;28;20626;-77
2022/03/24 11:11:56;;;;;;;0.50;0.50;;;23.40;1.00;;;;;;5033443;28;20180;-77
2022/03/24 11:14:21;;;;;;;0.60;0.60;;;24.00;1.00;;;;;;5033155;28;20511;-78
2022/03/24 11:16:47;;;;;;;0.60;0.60;;;23.80;1.00;;;;;;5036158;28;20191;-78
2022/03/24 11:19:15;;;;;;;0.50;0.50;;;23.90;1.00;;;;;;5034579;28;20172;-78
2022/03/24 11:21:43;;;;;;;0.40;0.40;;;24.50;1.00;;;;;;5038355;28;20275;-77
2022/03/24 11:24:09;;;;;;;0.60;0.60;;;24.50;1.00;;;;;;5040378;28;20676;-77
2022/03/24 11:26:35;;;;;;;0.50;0.50;;;24.30;1.00;;;;;;5042145;28;20179;-77
2022/03/24 11:29:03;;;;;;;0.57;0.57;;;24.70;1.00;;;;;;5055417;28;20179;-80
2022/03/24 11:31:31;;;;;;;0.40;0.40;;;24.80;1.00;;;;;;5053437;28;20279;-80
2022/03/24 11:34:00;;;;;;;0.60;0.60;;;24.60;1.00;;;;;;5056576;28;20185;-79
2022/03/24 11:36:27;;;;;;;0.40;0.40;;;24.90;1.00;;;;;;5058002;28;20259;-81
2022/03/24 11:38:55;;;;;;;0.60;0.60;;;24.90;1.00;;;;;;5060019;28;20190;-79
2022/03/24 11:41:29;;;;;;;0.40;0.40;;;24.30;1.00;;;;;;5058089;28;20195;-79
2022/03/24 11:44:01;;;;;;;0.43;0.43;;;24.90;1.00;;;;;;5059476;28;20252;-80
2022/03/24 11:46:33;;;;;;;0.40;0.40;;;25.00;1.00;;;;;;5056940;28;20175;-78
2022/03/24 11:49:26;;;;;;;0.40;0.40;;;24.70;1.00;;;;;;5051700;28;20559;-78
2022/03/24 11:51:57;;;;;;;0.50;0.50;;;24.50;1.00;;;;;;5057190;28;20221;-83
2022/03/24 11:54:35;;;;;;;0.30;0.30;;;24.70;1.00;;;;;;5056538;28;20186;-77
2022/03/24 11:57:27;;;;;;;0.47;0.47;;;25.00;1.00;;;;;;5057615;28;20270;-78
2022/03/24 12:00:15;;;;;;;0.30;0.30;;;25.30;1.00;;;;;;5058246;28;20577;-79
2022/03/24 12:02:45;;;;;;;0.30;0.30;;;25.30;1.00;;;;;;5056971;28;20202;-77
2022/03/24 12:05:12;;;;;;;0.40;0.40;;;25.00;1.00;;;;;;5057700;28;20539;-77
2022/03/24 12:07:38;;;;;;;0.50;0.50;;;24.90;1.00;;;;;;5058968;28;20294;-78
2022/03/24 12:10:08;;;;;;;0.43;0.43;;;25.30;1.00;;;;;;5059062;28;20214;-77
2022/03/24 12:12:35;;;;;;;0.40;0.40;;;25.10;1.00;;;;;;5058792;28;20206;-79
2022/03/24 12:15:17;;;;;;;0.30;0.30;;;25.30;1.00;;;;;;5057578;28;20175;-78
2022/03/24 12:18:06;;;;;;;0.20;0.20;;;24.60;1.00;;;;;;5058579;28;20182;-78
2022/03/24 12:20:46;;;;;;;0.30;0.30;;;25.00;1.00;;;;;;5057732;28;20199;-78
2022/03/24 12:23:11;;;;;;;0.30;0.30;;;25.20;1.00;;;;;;5058193;28;20206;-78
2022/03/24 12:25:38;;;;;;;0.30;0.30;;;24.60;1.00;;;;;;5058302;28;20229;-78
2022/03/24 12:28:09;;;;;;;0.30;0.30;;;25.30;1.00;;;;;;5059293;28;20217;-79
2022/03/24 12:30:51;;;;;;;0.30;0.30;;;25.50;1.00;;;;;;5056873;28;20599;-78
2022/03/24 12:33:28;;;;;;;0.40;0.40;;;25.10;1.00;;;;;;5056108;28;20182;-78
2022/03/24 12:35:58;;;;;;;0.33;0.33;;;25.20;1.00;;;;;;5055136;28;20228;-77
2022/03/24 12:38:29;;;;;;;0.40;0.40;;;25.30;1.00;;;;;;5056206;28;20798;-79
2022/03/24 12:41:06;;;;;;;0.30;0.30;;;25.00;1.00;;;;;;5054515;28;20202;-78
2022/03/24 12:43:54;;;;;;;0.30;0.30;;;24.80;1.00;;;;;;5054280;28;20214;-77
2022/03/24 12:46:38;;;;;;;0.30;0.30;;;25.00;1.00;;;;;;5055959;28;20259;-78
2022/03/24 12:49:12;;;;;;;0.40;0.40;;;24.60;1.00;;;;;;5055406;28;20266;-76
2022/03/24 12:52:01;;;;;;;0.30;0.30;;;25.30;1.00;;;;;;5055549;28;20266;-78
2022/03/24 12:54:28;;;;;;;0.27;0.27;;;25.70;1.00;;;;;;5056471;28;20175;-78
2022/03/24 12:57:22;;;;;;;0.30;0.30;;;25.70;1.00;;;;;;5055047;28;20655;-78
2022/03/24 12:59:48;;;;;;;0.20;0.20;;;25.70;1.00;;;;;;5054472;28;20191;-77
2022/03/24 13:02:14;;;;;;;0.30;0.30;;;25.50;1.00;;;;;;5055757;28;20195;-78
2022/03/24 13:04:40;;;;;;;0.30;0.30;;;25.20;1.00;;;;;;5058798;28;20207;-77